sensor_id;sensor_type;location;lat;lon;timestamp;P1;durP1;ratioP1;P2;durP2;ratioP2
37633;SDS011;32048;49.902;22.508;2022-12-07T00:01:11;8.57;;;5.25;;
37633;SDS011;32048;49.902;22.508;2022-12-07T00:03:42;7.47;;;4.37;;
37633;SDS011;32048;49.902;22.508;2022-12-07T00:06:11;11.90;;;5.82;;
37633;SDS011;32048;49.902;22.508;2022-12-07T00:11:08;9.70;;;5.73;;
37633;SDS011;32048;49.902;22.508;2022-12-07T00:13:37;8.67;;;5.03;;
37633;SDS011;32048;49.902;22.508;2022-12-07T00:16:06;9.37;;;5.13;;
37633;SDS011;32048;49.902;22.508;2022-12-07T00:18:45;11.13;;;5.20;;
37633;SDS011;32048;49.902;22.508;2022-12-07T00:21:13;11.73;;;5.23;;
37633;SDS011;32048;49.902;22.508;2022-12-07T00:23:43;9.70;;;5.23;;
37633;SDS011;32048;49.902;22.508;2022-12-07T00:26:12;7.97;;;4.43;;
37633;SDS011;32048;49.902;22.508;2022-12-07T00:28:40;7.68;;;4.45;;
37633;SDS011;32048;49.902;22.508;2022-12-07T00:31:08;9.40;;;4.53;;
37633;SDS011;32048;49.902;22.508;2022-12-07T00:33:37;14.10;;;4.87;;
37633;SDS011;32048;49.902;22.508;2022-12-07T00:36:06;7.27;;;4.10;;
37633;SDS011;32048;49.902;22.508;2022-12-07T00:38:35;9.40;;;4.93;;
37633;SDS011;32048;49.902;22.508;2022-12-07T00:41:09;9.15;;;5.43;;
37633;SDS011;32048;49.902;22.508;2022-12-07T00:43:39;8.27;;;4.63;;
37633;SDS011;32048;49.902;22.508;2022-12-07T00:46:07;7.30;;;4.30;;
37633;SDS011;32048;49.902;22.508;2022-12-07T00:48:34;6.07;;;3.97;;
37633;SDS011;32048;49.902;22.508;2022-12-07T00:51:02;7.53;;;5.00;;
37633;SDS011;32048;49.902;22.508;2022-12-07T00:53:30;7.65;;;4.45;;
37633;SDS011;32048;49.902;22.508;2022-12-07T00:56:05;8.17;;;4.53;;
37633;SDS011;32048;49.902;22.508;2022-12-07T00:58:33;7.10;;;3.97;;
37633;SDS011;32048;49.902;22.508;2022-12-07T01:01:00;8.00;;;4.27;;
37633;SDS011;32048;49.902;22.508;2022-12-07T01:03:29;8.95;;;4.38;;
37633;SDS011;32048;49.902;22.508;2022-12-07T01:05:56;6.53;;;4.47;;
37633;SDS011;32048;49.902;22.508;2022-12-07T01:08:24;6.90;;;4.30;;
37633;SDS011;32048;49.902;22.508;2022-12-07T01:11:27;7.55;;;4.63;;
37633;SDS011;32048;49.902;22.508;2022-12-07T01:13:49;6.37;;;3.80;;
37633;SDS011;32048;49.902;22.508;2022-12-07T01:16:17;6.63;;;4.17;;
37633;SDS011;32048;49.902;22.508;2022-12-07T01:18:46;7.20;;;4.27;;
37633;SDS011;32048;49.902;22.508;2022-12-07T01:21:16;5.43;;;3.43;;
37633;SDS011;32048;49.902;22.508;2022-12-07T01:23:45;6.17;;;3.90;;
37633;SDS011;32048;49.902;22.508;2022-12-07T01:26:14;7.83;;;4.40;;
37633;SDS011;32048;49.902;22.508;2022-12-07T01:28:43;6.50;;;4.07;;
37633;SDS011;32048;49.902;22.508;2022-12-07T01:31:12;6.67;;;4.27;;
37633;SDS011;32048;49.902;22.508;2022-12-07T01:33:45;7.37;;;4.50;;
37633;SDS011;32048;49.902;22.508;2022-12-07T01:36:18;8.07;;;3.43;;
37633;SDS011;32048;49.902;22.508;2022-12-07T01:38:49;6.03;;;3.90;;
37633;SDS011;32048;49.902;22.508;2022-12-07T01:41:20;5.53;;;3.10;;
37633;SDS011;32048;49.902;22.508;2022-12-07T01:46:35;6.83;;;3.40;;
37633;SDS011;32048;49.902;22.508;2022-12-07T01:49:07;5.67;;;3.53;;
37633;SDS011;32048;49.902;22.508;2022-12-07T01:51:39;5.23;;;3.40;;
37633;SDS011;32048;49.902;22.508;2022-12-07T01:54:09;4.90;;;3.47;;
37633;SDS011;32048;49.902;22.508;2022-12-07T01:56:39;5.67;;;3.43;;
37633;SDS011;32048;49.902;22.508;2022-12-07T01:59:11;6.97;;;3.50;;
37633;SDS011;32048;49.902;22.508;2022-12-07T02:01:38;5.50;;;3.40;;
37633;SDS011;32048;49.902;22.508;2022-12-07T02:04:05;5.63;;;3.80;;
37633;SDS011;32048;49.902;22.508;2022-12-07T02:06:32;5.43;;;3.73;;
37633;SDS011;32048;49.902;22.508;2022-12-07T02:09:02;6.37;;;3.67;;
37633;SDS011;32048;49.902;22.508;2022-12-07T02:11:29;6.63;;;4.27;;
37633;SDS011;32048;49.902;22.508;2022-12-07T02:13:57;4.73;;;3.50;;
37633;SDS011;32048;49.902;22.508;2022-12-07T02:16:26;7.20;;;3.57;;
37633;SDS011;32048;49.902;22.508;2022-12-07T02:30:35;4.43;;;2.77;;
37633;SDS011;32048;49.902;22.508;2022-12-07T02:35:54;6.00;;;3.00;;
37633;SDS011;32048;49.902;22.508;2022-12-07T02:38:28;5.57;;;3.53;;
37633;SDS011;32048;49.902;22.508;2022-12-07T02:41:10;6.20;;;3.00;;
37633;SDS011;32048;49.902;22.508;2022-12-07T02:43:41;5.13;;;3.20;;
37633;SDS011;32048;49.902;22.508;2022-12-07T02:46:21;5.37;;;3.10;;
37633;SDS011;32048;49.902;22.508;2022-12-07T02:48:52;4.83;;;2.90;;
37633;SDS011;32048;49.902;22.508;2022-12-07T02:51:21;5.60;;;3.33;;
37633;SDS011;32048;49.902;22.508;2022-12-07T02:53:49;5.33;;;3.37;;
37633;SDS011;32048;49.902;22.508;2022-12-07T03:15:35;3.83;;;2.53;;
37633;SDS011;32048;49.902;22.508;2022-12-07T03:18:18;4.13;;;2.60;;
37633;SDS011;32048;49.902;22.508;2022-12-07T03:20:49;3.63;;;2.87;;
37633;SDS011;32048;49.902;22.508;2022-12-07T03:23:20;3.37;;;2.63;;
37633;SDS011;32048;49.902;22.508;2022-12-07T03:25:52;5.53;;;3.13;;
37633;SDS011;32048;49.902;22.508;2022-12-07T03:28:28;5.60;;;3.13;;
37633;SDS011;32048;49.902;22.508;2022-12-07T03:31:01;3.93;;;2.77;;
37633;SDS011;32048;49.902;22.508;2022-12-07T03:33:40;6.43;;;3.17;;
37633;SDS011;32048;49.902;22.508;2022-12-07T03:36:20;5.67;;;3.47;;
37633;SDS011;32048;49.902;22.508;2022-12-07T03:41:59;6.50;;;3.80;;
37633;SDS011;32048;49.902;22.508;2022-12-07T03:44:29;4.67;;;3.27;;
37633;SDS011;32048;49.902;22.508;2022-12-07T03:47:07;5.43;;;3.60;;
37633;SDS011;32048;49.902;22.508;2022-12-07T03:49:54;6.50;;;4.00;;
37633;SDS011;32048;49.902;22.508;2022-12-07T03:57:39;7.60;;;3.57;;
37633;SDS011;32048;49.902;22.508;2022-12-07T04:00:09;5.47;;;3.27;;
37633;SDS011;32048;49.902;22.508;2022-12-07T04:02:37;5.40;;;3.90;;
37633;SDS011;32048;49.902;22.508;2022-12-07T04:05:05;5.37;;;2.90;;
37633;SDS011;32048;49.902;22.508;2022-12-07T04:07:32;6.20;;;3.87;;
37633;SDS011;32048;49.902;22.508;2022-12-07T04:10:00;8.90;;;5.10;;
37633;SDS011;32048;49.902;22.508;2022-12-07T04:12:27;8.07;;;4.27;;
37633;SDS011;32048;49.902;22.508;2022-12-07T04:14:55;6.77;;;3.77;;
37633;SDS011;32048;49.902;22.508;2022-12-07T04:17:21;9.50;;;3.70;;
37633;SDS011;32048;49.902;22.508;2022-12-07T04:19:49;6.43;;;4.17;;
37633;SDS011;32048;49.902;22.508;2022-12-07T04:22:16;6.93;;;4.07;;
37633;SDS011;32048;49.902;22.508;2022-12-07T04:24:43;8.60;;;4.03;;
37633;SDS011;32048;49.902;22.508;2022-12-07T04:27:10;9.97;;;4.23;;
37633;SDS011;32048;49.902;22.508;2022-12-07T04:29:37;7.00;;;3.83;;
37633;SDS011;32048;49.902;22.508;2022-12-07T04:32:04;7.13;;;4.17;;
37633;SDS011;32048;49.902;22.508;2022-12-07T04:34:31;8.80;;;4.70;;
37633;SDS011;32048;49.902;22.508;2022-12-07T04:36:58;8.77;;;4.67;;
37633;SDS011;32048;49.902;22.508;2022-12-07T04:39:29;8.33;;;4.50;;
37633;SDS011;32048;49.902;22.508;2022-12-07T04:41:57;11.70;;;5.37;;
37633;SDS011;32048;49.902;22.508;2022-12-07T04:44:25;10.63;;;5.10;;
37633;SDS011;32048;49.902;22.508;2022-12-07T04:46:54;8.70;;;4.00;;
37633;SDS011;32048;49.902;22.508;2022-12-07T04:49:21;8.80;;;4.33;;
37633;SDS011;32048;49.902;22.508;2022-12-07T04:51:49;9.73;;;4.70;;
37633;SDS011;32048;49.902;22.508;2022-12-07T04:54:16;11.33;;;5.33;;
37633;SDS011;32048;49.902;22.508;2022-12-07T04:56:43;9.27;;;4.27;;
37633;SDS011;32048;49.902;22.508;2022-12-07T04:59:11;9.10;;;4.03;;
37633;SDS011;32048;49.902;22.508;2022-12-07T05:01:39;7.57;;;4.27;;
37633;SDS011;32048;49.902;22.508;2022-12-07T05:04:07;11.63;;;4.63;;
37633;SDS011;32048;49.902;22.508;2022-12-07T05:06:35;10.57;;;4.83;;
37633;SDS011;32048;49.902;22.508;2022-12-07T05:09:02;10.83;;;4.67;;
37633;SDS011;32048;49.902;22.508;2022-12-07T05:11:30;8.37;;;4.07;;
37633;SDS011;32048;49.902;22.508;2022-12-07T05:14:11;6.43;;;3.97;;
37633;SDS011;32048;49.902;22.508;2022-12-07T05:16:43;8.83;;;3.93;;
37633;SDS011;32048;49.902;22.508;2022-12-07T05:19:13;5.07;;;3.20;;
37633;SDS011;32048;49.902;22.508;2022-12-07T05:21:40;6.03;;;3.27;;
37633;SDS011;32048;49.902;22.508;2022-12-07T05:24:08;6.13;;;3.60;;
37633;SDS011;32048;49.902;22.508;2022-12-07T05:26:36;7.00;;;3.73;;
37633;SDS011;32048;49.902;22.508;2022-12-07T05:29:03;10.10;;;4.43;;
37633;SDS011;32048;49.902;22.508;2022-12-07T05:31:31;15.23;;;5.83;;
37633;SDS011;32048;49.902;22.508;2022-12-07T05:33:59;9.57;;;4.70;;
37633;SDS011;32048;49.902;22.508;2022-12-07T05:36:26;7.63;;;4.63;;
37633;SDS011;32048;49.902;22.508;2022-12-07T05:38:55;11.23;;;5.50;;
37633;SDS011;32048;49.902;22.508;2022-12-07T05:41:22;12.07;;;5.47;;
37633;SDS011;32048;49.902;22.508;2022-12-07T05:44:08;10.57;;;6.13;;
37633;SDS011;32048;49.902;22.508;2022-12-07T05:46:35;8.27;;;4.63;;
37633;SDS011;32048;49.902;22.508;2022-12-07T05:49:02;8.30;;;4.70;;
37633;SDS011;32048;49.902;22.508;2022-12-07T05:51:29;9.73;;;5.07;;
37633;SDS011;32048;49.902;22.508;2022-12-07T05:53:56;6.83;;;4.87;;
37633;SDS011;32048;49.902;22.508;2022-12-07T05:56:23;8.47;;;5.23;;
37633;SDS011;32048;49.902;22.508;2022-12-07T05:58:51;6.70;;;4.70;;
37633;SDS011;32048;49.902;22.508;2022-12-07T06:01:36;9.57;;;5.07;;
37633;SDS011;32048;49.902;22.508;2022-12-07T06:04:03;8.23;;;5.40;;
37633;SDS011;32048;49.902;22.508;2022-12-07T06:06:30;10.50;;;5.70;;
37633;SDS011;32048;49.902;22.508;2022-12-07T06:08:57;13.40;;;7.00;;
37633;SDS011;32048;49.902;22.508;2022-12-07T06:11:24;8.93;;;6.40;;
37633;SDS011;32048;49.902;22.508;2022-12-07T06:14:09;10.13;;;6.77;;
37633;SDS011;32048;49.902;22.508;2022-12-07T06:16:36;9.13;;;5.90;;
37633;SDS011;32048;49.902;22.508;2022-12-07T06:19:04;13.50;;;8.00;;
37633;SDS011;32048;49.902;22.508;2022-12-07T06:21:31;16.37;;;8.73;;
37633;SDS011;32048;49.902;22.508;2022-12-07T06:23:58;17.83;;;9.73;;
37633;SDS011;32048;49.902;22.508;2022-12-07T06:26:25;16.67;;;8.30;;
37633;SDS011;32048;49.902;22.508;2022-12-07T06:28:52;14.10;;;7.43;;
37633;SDS011;32048;49.902;22.508;2022-12-07T06:31:19;13.80;;;8.50;;
37633;SDS011;32048;49.902;22.508;2022-12-07T06:33:46;13.97;;;7.23;;
37633;SDS011;32048;49.902;22.508;2022-12-07T06:36:13;11.53;;;6.57;;
37633;SDS011;32048;49.902;22.508;2022-12-07T06:38:40;12.17;;;8.17;;
37633;SDS011;32048;49.902;22.508;2022-12-07T06:41:07;11.33;;;7.40;;
37633;SDS011;32048;49.902;22.508;2022-12-07T06:43:34;12.83;;;8.50;;
37633;SDS011;32048;49.902;22.508;2022-12-07T06:46:03;13.30;;;8.90;;
37633;SDS011;32048;49.902;22.508;2022-12-07T06:50:57;12.20;;;7.23;;
37633;SDS011;32048;49.902;22.508;2022-12-07T06:53:24;12.93;;;8.23;;
37633;SDS011;32048;49.902;22.508;2022-12-07T06:55:51;10.60;;;7.30;;
37633;SDS011;32048;49.902;22.508;2022-12-07T06:58:18;12.83;;;8.70;;
37633;SDS011;32048;49.902;22.508;2022-12-07T07:00:45;11.17;;;7.50;;
37633;SDS011;32048;49.902;22.508;2022-12-07T07:03:15;9.53;;;6.47;;
37633;SDS011;32048;49.902;22.508;2022-12-07T07:05:43;11.10;;;8.00;;
37633;SDS011;32048;49.902;22.508;2022-12-07T07:08:11;11.38;;;7.78;;
37633;SDS011;32048;49.902;22.508;2022-12-07T07:10:48;12.97;;;7.10;;
37633;SDS011;32048;49.902;22.508;2022-12-07T07:13:15;9.87;;;7.07;;
37633;SDS011;32048;49.902;22.508;2022-12-07T07:15:42;11.10;;;7.17;;
37633;SDS011;32048;49.902;22.508;2022-12-07T07:18:09;14.93;;;7.90;;
37633;SDS011;32048;49.902;22.508;2022-12-07T07:20:36;14.17;;;7.97;;
37633;SDS011;32048;49.902;22.508;2022-12-07T07:23:03;11.27;;;6.97;;
37633;SDS011;32048;49.902;22.508;2022-12-07T07:25:30;14.73;;;8.23;;
37633;SDS011;32048;49.902;22.508;2022-12-07T07:27:58;10.27;;;6.63;;
37633;SDS011;32048;49.902;22.508;2022-12-07T07:30:25;13.63;;;8.70;;
37633;SDS011;32048;49.902;22.508;2022-12-07T07:32:56;12.77;;;7.53;;
37633;SDS011;32048;49.902;22.508;2022-12-07T07:35:25;16.13;;;7.63;;
37633;SDS011;32048;49.902;22.508;2022-12-07T07:37:53;17.50;;;10.23;;
37633;SDS011;32048;49.902;22.508;2022-12-07T07:40:20;16.93;;;10.13;;
37633;SDS011;32048;49.902;22.508;2022-12-07T07:42:48;14.03;;;9.17;;
37633;SDS011;32048;49.902;22.508;2022-12-07T07:45:16;11.13;;;7.30;;
37633;SDS011;32048;49.902;22.508;2022-12-07T07:47:44;17.07;;;9.23;;
37633;SDS011;32048;49.902;22.508;2022-12-07T07:50:11;22.73;;;10.33;;
37633;SDS011;32048;49.902;22.508;2022-12-07T07:52:38;23.07;;;10.53;;
37633;SDS011;32048;49.902;22.508;2022-12-07T07:55:05;15.37;;;9.80;;
37633;SDS011;32048;49.902;22.508;2022-12-07T07:57:35;12.87;;;8.53;;
37633;SDS011;32048;49.902;22.508;2022-12-07T08:00:03;11.93;;;7.47;;
37633;SDS011;32048;49.902;22.508;2022-12-07T08:02:32;10.35;;;6.72;;
37633;SDS011;32048;49.902;22.508;2022-12-07T08:04:59;13.67;;;8.10;;
37633;SDS011;32048;49.902;22.508;2022-12-07T08:07:26;10.60;;;7.47;;
37633;SDS011;32048;49.902;22.508;2022-12-07T08:09:54;11.20;;;7.10;;
37633;SDS011;32048;49.902;22.508;2022-12-07T08:12:21;10.13;;;6.03;;
37633;SDS011;32048;49.902;22.508;2022-12-07T08:14:48;9.67;;;6.90;;
37633;SDS011;32048;49.902;22.508;2022-12-07T08:17:15;8.60;;;5.90;;
37633;SDS011;32048;49.902;22.508;2022-12-07T08:19:42;10.57;;;6.63;;
37633;SDS011;32048;49.902;22.508;2022-12-07T08:22:09;10.70;;;6.10;;
37633;SDS011;32048;49.902;22.508;2022-12-07T08:24:36;8.87;;;6.17;;
37633;SDS011;32048;49.902;22.508;2022-12-07T08:27:03;9.90;;;6.17;;
37633;SDS011;32048;49.902;22.508;2022-12-07T08:29:30;8.87;;;6.20;;
37633;SDS011;32048;49.902;22.508;2022-12-07T08:31:57;9.03;;;6.10;;
37633;SDS011;32048;49.902;22.508;2022-12-07T08:34:24;9.40;;;6.40;;
37633;SDS011;32048;49.902;22.508;2022-12-07T08:36:51;9.87;;;6.37;;
37633;SDS011;32048;49.902;22.508;2022-12-07T08:39:18;9.57;;;6.73;;
37633;SDS011;32048;49.902;22.508;2022-12-07T08:42:00;9.60;;;6.30;;
37633;SDS011;32048;49.902;22.508;2022-12-07T08:44:27;10.90;;;7.27;;
37633;SDS011;32048;49.902;22.508;2022-12-07T08:46:56;17.13;;;7.77;;
37633;SDS011;32048;49.902;22.508;2022-12-07T08:49:28;16.20;;;8.73;;
37633;SDS011;32048;49.902;22.508;2022-12-07T08:52:00;14.17;;;7.23;;
37633;SDS011;32048;49.902;22.508;2022-12-07T08:54:30;12.13;;;7.30;;
37633;SDS011;32048;49.902;22.508;2022-12-07T08:57:00;11.17;;;6.77;;
37633;SDS011;32048;49.902;22.508;2022-12-07T08:59:27;14.90;;;7.93;;
37633;SDS011;32048;49.902;22.508;2022-12-07T09:01:55;10.55;;;6.30;;
37633;SDS011;32048;49.902;22.508;2022-12-07T09:04:22;13.57;;;8.27;;
37633;SDS011;32048;49.902;22.508;2022-12-07T09:06:49;12.20;;;6.40;;
37633;SDS011;32048;49.902;22.508;2022-12-07T09:09:16;12.20;;;7.20;;
37633;SDS011;32048;49.902;22.508;2022-12-07T09:11:44;12.03;;;7.43;;
37633;SDS011;32048;49.902;22.508;2022-12-07T09:14:12;12.70;;;7.87;;
37633;SDS011;32048;49.902;22.508;2022-12-07T09:16:39;12.43;;;6.90;;
37633;SDS011;32048;49.902;22.508;2022-12-07T09:19:07;10.23;;;6.27;;
37633;SDS011;32048;49.902;22.508;2022-12-07T09:21:34;8.98;;;6.10;;
37633;SDS011;32048;49.902;22.508;2022-12-07T09:24:01;12.77;;;7.37;;
37633;SDS011;32048;49.902;22.508;2022-12-07T09:26:28;12.67;;;8.00;;
37633;SDS011;32048;49.902;22.508;2022-12-07T09:28:55;12.30;;;7.47;;
37633;SDS011;32048;49.902;22.508;2022-12-07T09:31:22;14.03;;;7.93;;
37633;SDS011;32048;49.902;22.508;2022-12-07T09:33:55;12.60;;;7.25;;
37633;SDS011;32048;49.902;22.508;2022-12-07T09:36:26;15.33;;;7.77;;
37633;SDS011;32048;49.902;22.508;2022-12-07T09:38:54;15.00;;;8.50;;
37633;SDS011;32048;49.902;22.508;2022-12-07T09:41:21;18.43;;;8.87;;
37633;SDS011;32048;49.902;22.508;2022-12-07T09:43:50;16.00;;;8.10;;
37633;SDS011;32048;49.902;22.508;2022-12-07T09:46:19;18.27;;;9.05;;
37633;SDS011;32048;49.902;22.508;2022-12-07T09:48:47;16.77;;;8.57;;
37633;SDS011;32048;49.902;22.508;2022-12-07T09:51:20;13.47;;;8.60;;
37633;SDS011;32048;49.902;22.508;2022-12-07T09:53:52;12.73;;;7.17;;
37633;SDS011;32048;49.902;22.508;2022-12-07T09:56:21;15.00;;;8.73;;
37633;SDS011;32048;49.902;22.508;2022-12-07T09:58:49;13.53;;;8.87;;
37633;SDS011;32048;49.902;22.508;2022-12-07T10:01:17;9.70;;;7.43;;
37633;SDS011;32048;49.902;22.508;2022-12-07T10:03:51;10.90;;;7.20;;
37633;SDS011;32048;49.902;22.508;2022-12-07T10:06:20;11.33;;;7.37;;
37633;SDS011;32048;49.902;22.508;2022-12-07T10:08:48;13.97;;;8.83;;
37633;SDS011;32048;49.902;22.508;2022-12-07T10:11:15;13.87;;;8.70;;
37633;SDS011;32048;49.902;22.508;2022-12-07T10:18:55;11.13;;;7.13;;
37633;SDS011;32048;49.902;22.508;2022-12-07T10:21:23;11.03;;;7.47;;
37633;SDS011;32048;49.902;22.508;2022-12-07T10:24:04;10.85;;;7.32;;
37633;SDS011;32048;49.902;22.508;2022-12-07T10:26:48;11.80;;;6.47;;
37633;SDS011;32048;49.902;22.508;2022-12-07T10:42:20;14.40;;;9.00;;
37633;SDS011;32048;49.902;22.508;2022-12-07T11:01:54;12.87;;;8.17;;
37633;SDS011;32048;49.902;22.508;2022-12-07T11:04:35;16.20;;;8.80;;
37633;SDS011;32048;49.902;22.508;2022-12-07T11:07:38;15.80;;;9.30;;
37633;SDS011;32048;49.902;22.508;2022-12-07T11:24:27;14.30;;;8.87;;
37633;SDS011;32048;49.902;22.508;2022-12-07T11:33:01;14.83;;;8.70;;
37633;SDS011;32048;49.902;22.508;2022-12-07T11:38:48;13.23;;;8.30;;
37633;SDS011;32048;49.902;22.508;2022-12-07T11:41:22;11.80;;;7.70;;
37633;SDS011;32048;49.902;22.508;2022-12-07T11:47:23;17.57;;;10.07;;
37633;SDS011;32048;49.902;22.508;2022-12-07T11:50:07;14.38;;;8.88;;
37633;SDS011;32048;49.902;22.508;2022-12-07T12:03:52;12.90;;;7.17;;
37633;SDS011;32048;49.902;22.508;2022-12-07T12:06:23;16.10;;;8.50;;
37633;SDS011;32048;49.902;22.508;2022-12-07T12:09:02;11.57;;;6.97;;
37633;SDS011;32048;49.902;22.508;2022-12-07T12:17:42;8.70;;;5.70;;
37633;SDS011;32048;49.902;22.508;2022-12-07T12:25:45;9.23;;;5.57;;
37633;SDS011;32048;49.902;22.508;2022-12-07T12:28:40;9.20;;;5.33;;
37633;SDS011;32048;49.902;22.508;2022-12-07T12:33:48;9.53;;;5.00;;
37633;SDS011;32048;49.902;22.508;2022-12-07T12:38:48;9.67;;;6.23;;
37633;SDS011;32048;49.902;22.508;2022-12-07T12:57:07;12.90;;;8.00;;
37633;SDS011;32048;49.902;22.508;2022-12-07T12:59:38;11.73;;;6.13;;
37633;SDS011;32048;49.902;22.508;2022-12-07T13:02:21;14.67;;;8.47;;
37633;SDS011;32048;49.902;22.508;2022-12-07T13:04:56;11.67;;;6.97;;
37633;SDS011;32048;49.902;22.508;2022-12-07T13:13:00;13.80;;;8.13;;
37633;SDS011;32048;49.902;22.508;2022-12-07T13:18:23;14.10;;;7.53;;
37633;SDS011;32048;49.902;22.508;2022-12-07T13:26:13;8.10;;;6.23;;
37633;SDS011;32048;49.902;22.508;2022-12-07T13:34:02;10.80;;;6.88;;
37633;SDS011;32048;49.902;22.508;2022-12-07T13:36:37;13.60;;;8.73;;
37633;SDS011;32048;49.902;22.508;2022-12-07T13:41:41;14.00;;;7.07;;
37633;SDS011;32048;49.902;22.508;2022-12-07T13:44:10;14.00;;;8.43;;
37633;SDS011;32048;49.902;22.508;2022-12-07T13:46:51;11.50;;;6.93;;
37633;SDS011;32048;49.902;22.508;2022-12-07T13:49:23;14.00;;;7.78;;
37633;SDS011;32048;49.902;22.508;2022-12-07T13:51:52;20.60;;;10.07;;
37633;SDS011;32048;49.902;22.508;2022-12-07T13:54:20;20.83;;;10.20;;
37633;SDS011;32048;49.902;22.508;2022-12-07T13:56:51;21.07;;;11.43;;
37633;SDS011;32048;49.902;22.508;2022-12-07T13:59:20;15.97;;;8.97;;
37633;SDS011;32048;49.902;22.508;2022-12-07T14:01:52;16.90;;;9.50;;
37633;SDS011;32048;49.902;22.508;2022-12-07T14:04:33;14.93;;;8.10;;
37633;SDS011;32048;49.902;22.508;2022-12-07T14:10:03;20.67;;;10.50;;
37633;SDS011;32048;49.902;22.508;2022-12-07T14:12:49;13.47;;;9.13;;
37633;SDS011;32048;49.902;22.508;2022-12-07T14:15:23;14.83;;;8.63;;
37633;SDS011;32048;49.902;22.508;2022-12-07T14:17:55;15.03;;;8.43;;
37633;SDS011;32048;49.902;22.508;2022-12-07T14:23:02;12.90;;;7.53;;
37633;SDS011;32048;49.902;22.508;2022-12-07T14:25:48;21.93;;;11.93;;
37633;SDS011;32048;49.902;22.508;2022-12-07T14:28:25;29.47;;;20.10;;
37633;SDS011;32048;49.902;22.508;2022-12-07T14:30:57;23.90;;;16.53;;
37633;SDS011;32048;49.902;22.508;2022-12-07T14:33:25;88.97;;;59.77;;
37633;SDS011;32048;49.902;22.508;2022-12-07T14:35:53;97.83;;;56.70;;
37633;SDS011;32048;49.902;22.508;2022-12-07T14:38:25;42.20;;;27.83;;
37633;SDS011;32048;49.902;22.508;2022-12-07T14:40:52;139.67;;;91.83;;
37633;SDS011;32048;49.902;22.508;2022-12-07T14:43:21;75.90;;;48.55;;
37633;SDS011;32048;49.902;22.508;2022-12-07T14:45:48;39.47;;;24.20;;
37633;SDS011;32048;49.902;22.508;2022-12-07T14:48:18;38.80;;;19.00;;
37633;SDS011;32048;49.902;22.508;2022-12-07T14:51:05;56.40;;;38.70;;
37633;SDS011;32048;49.902;22.508;2022-12-07T14:53:59;49.23;;;27.80;;
37633;SDS011;32048;49.902;22.508;2022-12-07T14:56:26;53.77;;;29.40;;
37633;SDS011;32048;49.902;22.508;2022-12-07T14:58:54;44.22;;;24.13;;
37633;SDS011;32048;49.902;22.508;2022-12-07T15:01:21;78.67;;;55.23;;
37633;SDS011;32048;49.902;22.508;2022-12-07T15:03:48;60.30;;;39.60;;
37633;SDS011;32048;49.902;22.508;2022-12-07T15:06:16;39.33;;;22.57;;
37633;SDS011;32048;49.902;22.508;2022-12-07T15:08:45;32.07;;;17.73;;
37633;SDS011;32048;49.902;22.508;2022-12-07T15:11:16;48.60;;;27.37;;
37633;SDS011;32048;49.902;22.508;2022-12-07T15:13:44;52.40;;;30.13;;
37633;SDS011;32048;49.902;22.508;2022-12-07T15:16:30;50.67;;;32.20;;
37633;SDS011;32048;49.902;22.508;2022-12-07T15:19:21;52.70;;;29.80;;
37633;SDS011;32048;49.902;22.508;2022-12-07T15:21:54;58.23;;;33.57;;
37633;SDS011;32048;49.902;22.508;2022-12-07T15:24:22;57.80;;;32.27;;
37633;SDS011;32048;49.902;22.508;2022-12-07T15:26:50;65.25;;;33.60;;
37633;SDS011;32048;49.902;22.508;2022-12-07T15:29:18;42.47;;;22.67;;
37633;SDS011;32048;49.902;22.508;2022-12-07T15:31:51;34.03;;;18.13;;
37633;SDS011;32048;49.902;22.508;2022-12-07T15:34:24;22.00;;;12.63;;
37633;SDS011;32048;49.902;22.508;2022-12-07T15:36:53;30.23;;;16.73;;
37633;SDS011;32048;49.902;22.508;2022-12-07T15:39:20;23.23;;;13.43;;
37633;SDS011;32048;49.902;22.508;2022-12-07T15:41:48;57.93;;;28.33;;
37633;SDS011;32048;49.902;22.508;2022-12-07T15:44:15;44.57;;;23.57;;
37633;SDS011;32048;49.902;22.508;2022-12-07T15:47:00;50.10;;;25.40;;
37633;SDS011;32048;49.902;22.508;2022-12-07T15:49:27;40.40;;;21.23;;
37633;SDS011;32048;49.902;22.508;2022-12-07T15:51:54;45.87;;;23.37;;
37633;SDS011;32048;49.902;22.508;2022-12-07T15:54:23;38.87;;;18.37;;
37633;SDS011;32048;49.902;22.508;2022-12-07T15:56:51;32.60;;;16.23;;
37633;SDS011;32048;49.902;22.508;2022-12-07T15:59:19;19.70;;;11.03;;
37633;SDS011;32048;49.902;22.508;2022-12-07T16:01:46;27.47;;;13.47;;
37633;SDS011;32048;49.902;22.508;2022-12-07T16:04:13;31.77;;;15.57;;
37633;SDS011;32048;49.902;22.508;2022-12-07T16:06:40;31.03;;;16.30;;
37633;SDS011;32048;49.902;22.508;2022-12-07T16:09:07;43.77;;;22.17;;
37633;SDS011;32048;49.902;22.508;2022-12-07T16:11:35;45.57;;;22.97;;
37633;SDS011;32048;49.902;22.508;2022-12-07T16:14:02;32.67;;;16.57;;
37633;SDS011;32048;49.902;22.508;2022-12-07T16:16:29;25.60;;;14.07;;
37633;SDS011;32048;49.902;22.508;2022-12-07T16:18:57;32.10;;;16.57;;
37633;SDS011;32048;49.902;22.508;2022-12-07T16:21:24;24.17;;;12.80;;
37633;SDS011;32048;49.902;22.508;2022-12-07T16:23:51;24.07;;;13.53;;
37633;SDS011;32048;49.902;22.508;2022-12-07T16:26:20;19.40;;;11.63;;
37633;SDS011;32048;49.902;22.508;2022-12-07T16:28:49;21.80;;;12.13;;
37633;SDS011;32048;49.902;22.508;2022-12-07T16:31:18;19.77;;;11.13;;
37633;SDS011;32048;49.902;22.508;2022-12-07T16:33:47;23.43;;;13.20;;
37633;SDS011;32048;49.902;22.508;2022-12-07T16:36:16;29.85;;;16.45;;
37633;SDS011;32048;49.902;22.508;2022-12-07T16:39:05;30.92;;;15.43;;
37633;SDS011;32048;49.902;22.508;2022-12-07T16:41:32;44.07;;;20.87;;
37633;SDS011;32048;49.902;22.508;2022-12-07T16:44:01;50.87;;;26.10;;
37633;SDS011;32048;49.902;22.508;2022-12-07T16:46:31;58.50;;;27.33;;
37633;SDS011;32048;49.902;22.508;2022-12-07T16:51:27;40.43;;;21.17;;
37633;SDS011;32048;49.902;22.508;2022-12-07T16:53:55;36.60;;;20.73;;
37633;SDS011;32048;49.902;22.508;2022-12-07T16:56:22;32.77;;;16.30;;
37633;SDS011;32048;49.902;22.508;2022-12-07T16:58:49;29.77;;;16.93;;
37633;SDS011;32048;49.902;22.508;2022-12-07T17:01:20;23.47;;;13.67;;
37633;SDS011;32048;49.902;22.508;2022-12-07T17:03:51;25.50;;;13.80;;
37633;SDS011;32048;49.902;22.508;2022-12-07T17:06:22;40.87;;;21.13;;
37633;SDS011;32048;49.902;22.508;2022-12-07T17:08:51;30.00;;;14.87;;
37633;SDS011;32048;49.902;22.508;2022-12-07T17:11:20;42.90;;;25.40;;
37633;SDS011;32048;49.902;22.508;2022-12-07T17:13:52;31.07;;;16.13;;
37633;SDS011;32048;49.902;22.508;2022-12-07T17:16:38;38.73;;;18.73;;
37633;SDS011;32048;49.902;22.508;2022-12-07T17:19:06;40.57;;;17.53;;
37633;SDS011;32048;49.902;22.508;2022-12-07T17:21:35;54.63;;;23.45;;
37633;SDS011;32048;49.902;22.508;2022-12-07T17:24:03;39.77;;;17.63;;
37633;SDS011;32048;49.902;22.508;2022-12-07T17:26:33;45.07;;;19.23;;
37633;SDS011;32048;49.902;22.508;2022-12-07T17:29:03;37.25;;;18.23;;
37633;SDS011;32048;49.902;22.508;2022-12-07T17:31:32;51.37;;;22.23;;
37633;SDS011;32048;49.902;22.508;2022-12-07T17:33:59;46.07;;;24.43;;
37633;SDS011;32048;49.902;22.508;2022-12-07T17:36:28;42.10;;;20.50;;
37633;SDS011;32048;49.902;22.508;2022-12-07T17:38:56;45.97;;;21.77;;
37633;SDS011;32048;49.902;22.508;2022-12-07T17:41:24;61.13;;;28.67;;
37633;SDS011;32048;49.902;22.508;2022-12-07T17:44:15;68.83;;;28.60;;
37633;SDS011;32048;49.902;22.508;2022-12-07T17:46:44;55.57;;;28.77;;